Map

Track Data

SID SEASON NUMBER BASIN SUBBASIN NAME ISO_TIME NATURE LAT LON WMO_WIND WMO_PRES WMO_AGENCY TRACK_TYPE DIST2LAND LANDFALL IFLAG USA_AGENCY USA_ATCF_ID USA_LAT USA_LON USA_RECORD USA_STATUS USA_WIND USA_PRES USA_SSHS USA_R34_NE USA_R34_SE USA_R34_SW USA_R34_NW USA_R50_NE USA_R50_SE USA_R50_SW USA_R50_NW USA_R64_NE USA_R64_SE USA_R64_SW USA_R64_NW USA_POCI USA_ROCI USA_RMW USA_EYE TOKYO_LAT TOKYO_LON TOKYO_GRADE TOKYO_WIND TOKYO_PRES TOKYO_R50_DIR TOKYO_R50_LONG TOKYO_R50_SHORT TOKYO_R30_DIR TOKYO_R30_LONG TOKYO_R30_SHORT TOKYO_LAND CMA_LAT CMA_LON CMA_CAT CMA_WIND CMA_PRES HKO_LAT HKO_LON HKO_CAT HKO_WIND HKO_PRES NEWDELHI_LAT NEWDELHI_LON NEWDELHI_GRADE NEWDELHI_WIND NEWDELHI_PRES NEWDELHI_CI NEWDELHI_DP NEWDELHI_POCI REUNION_LAT REUNION_LON REUNION_TYPE REUNION_WIND REUNION_PRES REUNION_TNUM REUNION_CI REUNION_RMW REUNION_R34_NE REUNION_R34_SE REUNION_R34_SW REUNION_R34_NW REUNION_R50_NE REUNION_R50_SE REUNION_R50_SW REUNION_R50_NW REUNION_R64_NE REUNION_R64_SE REUNION_R64_SW REUNION_R64_NW BOM_LAT BOM_LON BOM_TYPE BOM_WIND BOM_PRES BOM_TNUM BOM_CI BOM_RMW BOM_R34_NE BOM_R34_SE BOM_R34_SW BOM_R34_NW BOM_R50_NE BOM_R50_SE BOM_R50_SW BOM_R50_NW BOM_R64_NE BOM_R64_SE BOM_R64_SW BOM_R64_NW BOM_ROCI BOM_POCI BOM_EYE BOM_POS_METHOD BOM_PRES_METHOD NADI_LAT NADI_LON NADI_CAT NADI_WIND NADI_PRES WELLINGTON_LAT WELLINGTON_LON WELLINGTON_WIND WELLINGTON_PRES DS824_LAT DS824_LON DS824_STAGE DS824_WIND DS824_PRES TD9636_LAT TD9636_LON TD9636_STAGE TD9636_WIND TD9636_PRES TD9635_LAT TD9635_LON TD9635_WIND TD9635_PRES TD9635_ROCI NEUMANN_LAT NEUMANN_LON NEUMANN_CLASS NEUMANN_WIND NEUMANN_PRES MLC_LAT MLC_LON MLC_CLASS MLC_WIND MLC_PRES USA_GUST BOM_GUST BOM_GUST_PER REUNION_GUST REUNION_GUST_PER USA_SEAHGT USA_SEARAD_NE USA_SEARAD_SE USA_SEARAD_SW USA_SEARAD_NW STORM_SPEED STORM_DIR
1958143N06158 1958 35 WP MM PHYLLIS 1958-05-23 00:00:00 TS 6.00000 157.500 main 1208 1197 __O___________ -1 6.00000 157.500 1 23 1005 4 266
1958143N06158 1958 35 WP MM PHYLLIS 1958-05-23 03:00:00 TS 5.98751 157.307 main 1197 1185 __P___________ -1 5.98751 157.307 1 26 1003 4 270
1958143N06158 1958 35 WP MM PHYLLIS 1958-05-23 06:00:00 TS 6.00000 157.100 main 1185 1173 __O___________ -1 6.00000 157.100 1 29 1002 4 278
1958143N06158 1958 35 WP MM PHYLLIS 1958-05-23 09:00:00 TS 6.04999 156.865 main 1173 1166 __P___________ -1 6.04999 156.865 1 29 1001 5 281
1958143N06158 1958 35 WP MM PHYLLIS 1958-05-23 12:00:00 TS 6.10000 156.600 main 1166 1150 __O___________ -1 6.10000 156.600 1 29 1000 6 275
1958143N06158 1958 35 WP MM PHYLLIS 1958-05-23 15:00:00 TS 6.09999 156.307 main 1150 1135 __P___________ -1 6.09999 156.307 1 29 999 6 270
1958143N06158 1958 35 WP MM PHYLLIS 1958-05-23 18:00:00 TS 6.10000 156.000 main 1135 1121 __O___________ -1 6.10000 156.000 1 29 998 6 275
1958143N06158 1958 35 WP MM PHYLLIS 1958-05-23 21:00:00 TS 6.14998 155.700 main 1121 1115 __P___________ -1 6.14998 155.700 1 29 998 6 280
1958143N06158 1958 35 WP MM PHYLLIS 1958-05-24 00:00:00 TS 6.20000 155.400 main 1115 1101 __O___________ -1 6.20000 155.400 1 29 998 6 275
1958143N06158 1958 35 WP MM PHYLLIS 1958-05-24 03:00:00 TS 6.19995 155.115 main 1101 1087 __P___________ -1 6.19995 155.115 1 33 997 6 270
1958143N06158 1958 35 WP MM PHYLLIS 1958-05-24 06:00:00 TS 6.20000 154.800 main 1087 1070 __O___________ -1 6.20000 154.800 2 38 996 7 274
1958143N06158 1958 35 WP MM PHYLLIS 1958-05-24 09:00:00 TS 6.24250 154.415 main 1070 1065 __P___________ -1 6.24250 154.415 2 48 993 8 277
1958143N06158 1958 35 WP MM PHYLLIS 1958-05-24 12:00:00 TS 6.30000 154.000 main 1065 1055 __O___________ -1 6.30000 154.000 3 58 990 8 278
1958143N06158 1958 35 WP MM PHYLLIS 1958-05-24 15:00:00 TS 6.35747 153.600 main 1063 1051 __P___________ -1 6.35747 153.600 3 63 987 8 277
1958143N06158 1958 35 WP MM PHYLLIS 1958-05-24 18:00:00 TS 6.40000 153.200 main 1051 1041 __O___________ -1 6.40000 153.200 4 68 985 8 273
1958143N06158 1958 35 WP MM PHYLLIS 1958-05-24 21:00:00 TS 6.39999 152.792 main 1041 1007 __P___________ -1 6.39999 152.792 4 72 982 10 257
1958143N06158 1958 35 WP MM PHYLLIS 1958-05-25 00:00:00 TS 6.18000 152.220 1005 tokyo main 1007 1004 _OO___________ -1 5.30000 151.500 2 1005 0 0 0 6.40000 152.400 4 77 980 9 263
1958143N06158 1958 35 WP MM PHYLLIS 1958-05-25 03:00:00 TS 6.29413 151.934 main 1014 1014 _PP___________ -1 5.99746 151.717 2 990 0 0 6.44246 152.043 4 82 977 6 300
1958143N06158 1958 35 WP MM PHYLLIS 1958-05-25 06:00:00 TS 6.50000 151.670 975 tokyo main 1034 1033 OOO______O_O__ jtwc_wp WP021958 6.50000 151.600 80 1 6.50000 151.700 9 975 0 0 0 6.50000 151.700 5 87 975 6.50000 151.600 TC 80 6.50000 151.600 80 968 180 7 296
1958143N06158 1958 35 WP MM PHYLLIS 1958-05-25 09:00:00 TS 6.58790 151.321 main 1043 1042 PPP______P_P__ WP021958 6.55002 151.310 100 3 6.68263 151.310 9 970 0 0 6.54998 151.350 5 92 972 6.55002 151.310 TC 100 6.55002 151.310 100 963 210 7 280
1958143N06158 1958 35 WP MM PHYLLIS 1958-05-25 12:00:00 TS 6.62222 150.956 965 tokyo main 1042 1042 OOO______OOO__ jtwc_wp WP021958 6.60000 151.000 120 4 6.70000 150.800 9 965 0 0 0 6.60000 151.000 5 97 969 6.60000 151.000 TC 120 6.60000 151.000 3 120 6.60000 151.000 120 958 240 7 277
1958143N06158 1958 35 WP MM PHYLLIS 1958-05-25 15:00:00 TS 6.66977 150.622 main 1048 1037 PPP______PPP__ WP021958 6.64999 150.658 122 4 6.76495 150.470 9 965 0 0 6.64998 150.650 5 101 966 6.64999 150.658 TC 122 6.63768 150.658 3 122 6.64999 150.658 122 955 270 7 278
1958143N06158 1958 35 WP MM PHYLLIS 1958-05-25 18:00:00 TS 6.71481 150.284 965 tokyo main 1037 1027 OOO______OPO__ jtwc_wp WP021958 6.70000 150.300 125 4 6.80000 150.200 9 965 0 0 0 6.70000 150.300 6 106 963 6.70000 150.300 TC 125 6.68020 150.313 3 125 6.70000 150.300 125 952 300 7 277
1958143N06158 1958 35 WP MM PHYLLIS 1958-05-25 21:00:00 TS 6.75166 149.954 main 1038 1026 PPP______PPP__ WP021958 6.74248 149.950 127 4 6.79993 149.965 9 957 0 0 6.74998 149.950 6 116 957 6.74248 149.950 TC 127 6.73262 149.961 3 127 6.74248 149.950 127 946 270 7 277
1958143N06158 1958 35 WP MM PHYLLIS 1958-05-26 00:00:00 TS 6.80000 149.617 950 tokyo main 1026 1021 OOO______OOO__ jtwc_wp WP021958 6.80000 149.600 130 4 6.80000 149.700 9 950 0 0 0 6.80000 149.600 6 126 951 6.80000 149.600 TC 130 6.80000 149.600 4 130 6.80000 149.600 130 941 240 7 280
1958143N06158 1958 35 WP MM PHYLLIS 1958-05-26 03:00:00 TS 6.87087 149.272 main 1030 1024 PPP______PPP__ WP021958 6.89244 149.265 130 4 6.82747 149.337 9 955 0 0 6.83492 149.272 6 121 953 6.89244 149.265 TC 130 6.88551 149.227 4 130 6.89244 149.265 130 948 210 7 283
1958143N06158 1958 35 WP MM PHYLLIS 1958-05-26 06:00:00 TS 6.96414 148.890 960 tokyo main 1033 1028 OOO______OPO__ jtwc_wp WP021958 7.00000 148.900 130 4 6.90000 148.900 9 960 0 0 0 6.90000 148.900 6 116 956 7.00000 148.900 TC 130 6.98482 148.837 4 130 7.00000 148.900 130 956 180 9 284
1958143N06158 1958 35 WP MM PHYLLIS 1958-05-26 09:00:00 TS 7.08322 148.436 main 1036 1034 PPP______PPP__ WP021958 7.10754 148.450 130 4 7.04249 148.415 9 962 0 0 7.04251 148.423 6 116 957 7.10754 148.450 TC 130 7.09172 148.430 4 130 7.10754 148.450 130 953 180 9 284
1958143N06158 1958 35 WP MM PHYLLIS 1958-05-26 12:00:00 TS 7.20000 147.967 965 tokyo main 1044 1042 OOO______OOO__ jtwc_wp WP021958 7.20000 148.000 130 4 7.20000 147.900 9 965 0 0 0 7.20000 147.900 6 116 958 7.20000 148.000 TC 130 7.20000 148.000 4 130 7.20000 148.000 130 951 180 9 282
1958143N06158 1958 35 WP MM PHYLLIS 1958-05-26 15:00:00 TS 7.26768 147.555 main 1053 1053 PPP______PPP__ WP021958 7.24233 147.672 130 4 7.30747 147.392 9 967 0 0 7.29997 147.392 6 116 959 7.24233 147.672 TC 130 7.27164 147.530 4 130 7.24233 147.672 130 949 180 8 280
1958143N06158 1958 35 WP MM PHYLLIS 1958-05-26 18:00:00 TS 7.34127 147.124 970 tokyo main 1053 1053 OOO______OPO__ jtwc_wp WP021958 7.30000 147.300 130 4 7.40000 146.900 9 970 0 0 0 7.40000 146.900 6 116 960 7.30000 147.300 TC 130 7.34762 147.042 4 130 7.30000 147.300 130 947 180 10 281
1958143N06158 1958 35 WP MM PHYLLIS 1958-05-26 21:00:00 TS 7.45003 146.589 main 1075 1075 PPP______PPP__ WP021958 7.42016 146.708 130 4 7.46247 146.427 9 967 0 0 7.52747 146.427 6 116 960 7.42016 146.708 TC 130 7.44977 146.558 4 130 7.42016 146.708 130 950 180 11 285
1958143N06158 1958 35 WP MM PHYLLIS 1958-05-27 00:00:00 TS 7.61667 146.067 965 tokyo main 1088 1088 OOO______OOO__ jtwc_wp WP021958 7.60000 146.100 130 4 7.60000 146.000 9 965 0 0 0 7.70000 146.000 6 116 960 7.60000 146.100 TC 130 7.60000 146.100 4 130 7.60000 146.100 130 953 180 10 294
1958143N06158 1958 35 WP MM PHYLLIS 1958-05-27 03:00:00 TS 7.85370 145.655 main 1125 1125 PPP______PPP__ WP021958 7.82738 145.662 135 4 7.91993 145.635 9 965 0 0 7.91995 145.627 6 116 960 7.82738 145.662 TC 135 7.80019 145.680 4 132 7.82738 145.662 135 956 180 9 305
1958143N06158 1958 35 WP MM PHYLLIS 1958-05-27 06:00:00 TS 8.14206 145.298 965 tokyo main 1152 1152 OOO______OPO__ jtwc_wp WP021958 8.10000 145.300 140 5 8.30000 145.300 9 965 0 0 0 8.20000 145.300 6 116 960 8.10000 145.300 TC 140 8.05237 145.290 4 135 8.10000 145.300 140 960 180 9 309
1958143N06158 1958 35 WP MM PHYLLIS 1958-05-27 09:00:00 TS 8.43179 144.945 main 1191 1191 PPP______PPP__ WP021958 8.36247 144.935 140 5 8.61499 144.942 9 960 0 0 8.53496 144.992 6 121 957 8.36247 144.935 TC 140 8.35336 144.930 4 137 8.36247 144.935 140 957 180 9 313
1958143N06158 1958 35 WP MM PHYLLIS 1958-05-27 12:00:00 TS 8.76667 144.617 955 tokyo main 1241 1241 OOO______OOO__ jtwc_wp WP021958 8.70000 144.600 140 5 8.90000 144.600 9 955 0 0 0 8.90000 144.700 6 126 954 8.70000 144.600 TC 140 8.70000 144.600 4 140 8.70000 144.600 140 955 180 10 320
1958143N06158 1958 35 WP MM PHYLLIS 1958-05-27 15:00:00 TS 9.17218 144.308 main 1291 1291 PPP______PPP__ WP021958 9.19248 144.285 140 5 9.11996 144.292 9 952 0 0 9.24998 144.400 6 131 951 9.19248 144.285 TC 140 9.08574 144.300 4 140 9.19248 144.285 140 952 180 10 325
1958143N06158 1958 35 WP MM PHYLLIS 1958-05-27 18:00:00 TS 9.60204 144.021 950 tokyo main 1342 1342 OOO______OPO__ jtwc_wp WP021958 9.70000 144.000 140 5 9.40000 144.000 9 950 0 0 0 9.60000 144.100 6 136 948 9.70000 144.000 TC 140 9.51225 144.027 4 141 9.70000 144.000 140 950 180 10 326
1958143N06158 1958 35 WP MM PHYLLIS 1958-05-27 21:00:00 TS 9.99916 143.749 main 1393 1393 PPP______PPP__ WP021958 10.0649 143.750 142 5 9.89251 143.685 9 947 0 0 9.94999 143.792 6 140 945 10.0649 143.750 TC 142 9.95764 143.766 4 142 10.0649 143.750 141 948 180 9 326
1958143N06158 1958 35 WP MM PHYLLIS 1958-05-28 00:00:00 TS 10.3833 143.483 945 tokyo main 1442 1442 OOO______OOO__ jtwc_wp WP021958 10.4000 143.500 145 5 10.4000 143.400 9 945 0 0 0 10.3000 143.500 6 145 943 10.4000 143.500 TC 145 10.4000 143.500 4 143 10.4000 143.500 143 946 180 9 325
1958143N06158 1958 35 WP MM PHYLLIS 1958-05-28 03:00:00 TS 10.7539 143.216 main 1493 1493 PPP______PPP__ WP021958 10.7925 143.207 147 5 10.6999 143.207 9 942 0 0 10.6349 143.265 6 150 941 10.7925 143.207 TC 147 10.8112 143.199 4 144 10.7925 143.207 146 942 180 9 324
1958143N06158 1958 35 WP MM PHYLLIS 1958-05-28 06:00:00 TS 11.1358 142.932 940 tokyo main 1515 1515 OOO______OPO__ jtwc_wp WP021958 11.2000 142.900 150 5 11.0000 143.000 9 940 0 0 0 11.0000 143.000 6 155 939 11.2000 142.900 TC 150 11.2150 142.892 4 146 11.2000 142.900 150 939 180 10 324
1958143N06158 1958 35 WP MM PHYLLIS 1958-05-28 09:00:00 TS 11.5439 142.621 main 1546 1546 PPP______PPP__ WP021958 11.5849 142.615 150 5 11.4700 142.687 9 940 0 0 11.4276 142.608 6 155 939 11.5849 142.615 TC 150 11.6112 142.590 4 148 11.5849 142.615 150 937 180 11 323
1958143N06158 1958 35 WP MM PHYLLIS 1958-05-28 12:00:00 TS 11.9833 142.283 940 tokyo main 1589 1586 OOO______OOO__ jtwc_wp WP021958 12.0000 142.300 150 5 12.0000 142.300 9 940 0 0 0 11.9000 142.200 6 155 939 12.0000 142.300 TC 150 12.0000 142.300 4 150 12.0000 142.300 150 935 180 12 323
1958143N06158 1958 35 WP MM PHYLLIS 1958-05-28 15:00:00 TS 12.4859 141.884 main 1630 1626 PPP______PPP__ WP021958 12.5226 141.870 152 5 12.5302 141.813 9 940 0 0 12.4150 141.863 6 155 939 12.5226 141.870 TC 152 12.4024 142.015 4 152 12.5226 141.870 152 933 180 12 323
1958143N06158 1958 35 WP MM PHYLLIS 1958-05-28 18:00:00 TS 12.9492 141.541 940 tokyo main 1654 1654 OOO______OPO__ jtwc_wp WP021958 13.0000 141.500 155 5 13.0000 141.400 9 940 0 0 0 12.9000 141.600 6 155 939 13.0000 141.500 TC 155 12.7950 141.748 4 155 13.0000 141.500 155 931 180 9 328
1958143N06158 1958 35 WP MM PHYLLIS 1958-05-28 21:00:00 TS 13.2678 141.384 main 1692 1692 PPP______PPP__ WP021958 13.2724 141.370 157 5 13.3373 141.255 9 940 0 0 13.2874 141.435 6 155 938 13.2724 141.370 TC 157 13.1650 141.506 4 157 13.2724 141.370 157 930 180 6 337
1958143N06158 1958 35 WP MM PHYLLIS 1958-05-29 00:00:00 TS 13.5333 141.283 940 tokyo main 1708 1691 OOO______OOO__ jtwc_wp WP021958 13.5000 141.300 160 5 13.6000 141.200 9 940 0 0 0 13.6000 141.300 6 155 938 13.5000 141.300 TC 160 13.5000 141.300 4 160 13.5000 141.300 160 929 180 7 334
1958143N06158 1958 35 WP MM PHYLLIS 1958-05-29 03:00:00 TS 13.8513 141.085 main 1693 1675 PPP______PPP__ WP021958 13.8651 141.093 152 5 13.8575 141.035 9 952 0 0 13.8650 141.092 6 140 951 13.8651 141.093 TC 152 13.7899 141.102 4 156 13.8651 141.093 152 931 210 7 329
1958143N06158 1958 35 WP MM PHYLLIS 1958-05-29 06:00:00 TS 14.1408 140.907 965 tokyo main 1675 1669 OOO______OPO__ jtwc_wp WP021958 14.2000 140.900 145 5 14.1000 140.900 9 965 0 0 0 14.1000 140.900 6 126 964 14.2000 140.900 TC 145 14.0449 140.945 4 152 14.2000 140.900 145 934 240 6 332
1958143N06158 1958 35 WP MM PHYLLIS 1958-05-29 09:00:00 TS 14.3479 140.815 main 1669 1669 PPP______PPP__ WP021958 14.3650 140.805 145 5 14.3575 140.877 9 965 0 0 14.3575 140.755 6 121 965 14.3650 140.805 TC 145 14.2774 140.840 4 148 14.3650 140.805 145 939 300 4 346
1958143N06158 1958 35 WP MM PHYLLIS 1958-05-29 12:00:00 TS 14.5333 140.800 965 tokyo main 1673 1673 OOO______OOO__ jtwc_wp WP021958 14.5000 140.800 145 5 14.6000 140.900 9 965 0 0 0 14.6000 140.700 6 116 967 14.5000 140.800 TC 145 14.5000 140.800 4 145 14.5000 140.800 145 945 360 4 5
1958143N06158 1958 35 WP MM PHYLLIS 1958-05-29 15:00:00 TS 14.7647 140.845 main 1680 1680 PPP______PPP__ WP021958 14.7425 140.877 137 5 14.8225 140.878 9 965 0 0 14.8225 140.762 6 111 968 14.7425 140.877 TC 137 14.7157 140.799 4 136 14.7425 140.877 137 950 360 5 17
1958143N06158 1958 35 WP MM PHYLLIS 1958-05-29 18:00:00 TS 14.9879 140.944 965 tokyo main 1694 1694 OOO______OPO__ jtwc_wp WP021958 15.0000 141.000 130 4 15.0000 140.900 9 965 0 0 0 15.0000 140.900 6 106 970 15.0000 141.000 TC 130 14.9272 140.865 4 127 15.0000 141.000 130 956 360 4 26
1958143N06158 1958 35 WP MM PHYLLIS 1958-05-29 21:00:00 TS 15.1508 141.042 main 1708 1708 PPP______PPP__ WP021958 15.1999 141.070 120 4 15.0775 141.013 9 967 0 0 15.0775 141.028 6 106 970 15.1999 141.070 TC 120 15.1501 140.999 4 118 15.1999 141.070 120 958 330 4 35
1958143N06158 1958 35 WP MM PHYLLIS 1958-05-30 00:00:00 TS 15.3333 141.200 970 tokyo main 1731 1731 OOO______OOO__ jtwc_wp WP021958 15.4000 141.200 110 3 15.2000 141.200 9 970 0 0 0 15.2000 141.200 6 106 970 15.4000 141.200 TC 110 15.4000 141.200 4 110 15.4000 141.200 110 961 300 6 42
1958143N06158 1958 35 WP MM PHYLLIS 1958-05-30 03:00:00 TS 15.5908 141.450 main 1758 1758 PPP______PPP__ WP021958 15.6200 141.463 110 3 15.5125 141.427 9 970 0 0 15.5125 141.427 6 106 970 15.6200 141.463 TC 110 15.6599 141.457 4 107 15.6200 141.463 110 960 300 8 43
1958143N06158 1958 35 WP MM PHYLLIS 1958-05-30 06:00:00 TS 15.9088 141.763 970 tokyo main 1806 1806 OOO______OPO__ jtwc_wp WP021958 15.9000 141.800 110 3 15.9000 141.700 9 970 0 0 0 15.9000 141.700 6 106 970 15.9000 141.800 TC 110 15.9528 141.776 4 105 15.9000 141.800 110 959 300 9 42
1958143N06158 1958 35 WP MM PHYLLIS 1958-05-30 09:00:00 TS 16.2736 142.094 main 1847 1847 PPP______PPP__ WP021958 16.2925 142.157 105 3 16.2274 141.970 9 970 0 0 16.2425 141.993 6 101 972 16.2925 142.157 TC 105 16.2942 142.132 4 102 16.2925 142.157 105 960 300 10 40
1958143N06158 1958 35 WP MM PHYLLIS 1958-05-30 12:00:00 TS 16.6667 142.433 970 tokyo main 1888 1888 OOO______OOO__ jtwc_wp WP021958 16.7000 142.500 100 3 16.6000 142.300 9 970 0 0 0 16.6000 142.300 5 97 974 16.7000 142.500 TC 100 16.7000 142.500 4 100 16.7000 142.500 100 962 300 9 41
1958143N06158 1958 35 WP MM PHYLLIS 1958-05-30 15:00:00 TS 16.9858 142.730 main 1926 1926 PPP______PPP__ WP021958 16.9398 142.736 100 3 17.0551 142.742 9 972 0 0 16.9398 142.571 5 97 976 16.9398 142.736 TC 100 17.1004 142.860 4 100 16.9398 142.736 100 963 300 10 38
1958143N06158 1958 35 WP MM PHYLLIS 1958-05-30 18:00:00 TS 17.4126 143.054 975 tokyo main 1930 1879 OOO______OPO__ jtwc_wp WP021958 17.3000 143.000 100 3 17.6000 143.200 9 975 0 0 0 17.4000 142.900 5 97 978 17.3000 143.000 TC 100 17.5757 143.224 4 100 17.3000 143.000 100 965 300 13 33
1958143N06158 1958 35 WP MM PHYLLIS 1958-05-30 21:00:00 TS 18.0665 143.479 main 1873 1808 PPP______PPP__ WP021958 17.9953 143.442 100 3 18.1824 143.573 9 975 0 0 18.0678 143.400 5 97 975 17.9953 143.442 TC 100 18.1630 143.576 4 100 17.9953 143.442 100 966 300 17 28
1958143N06158 1958 35 WP MM PHYLLIS 1958-05-31 00:00:00 TS 18.9000 143.900 975 tokyo main 1808 1731 OOO______OOO__ jtwc_wp WP021958 18.9000 143.900 100 3 18.9000 143.900 9 975 0 0 0 18.9000 143.900 5 97 973 18.9000 143.900 TC 100 18.9000 143.900 4 100 18.9000 143.900 100 968 300 19 23
1958143N06158 1958 35 WP MM PHYLLIS 1958-05-31 03:00:00 TS 19.8295 144.256 main 1736 1637 PPP______PPP__ WP021958 19.8474 144.238 100 3 19.8051 144.281 9 972 0 0 19.7975 144.275 5 97 972 19.8474 144.238 TC 100 19.8324 144.267 4 100 19.8474 144.238 100 966 300 21 16
1958143N06158 1958 35 WP MM PHYLLIS 1958-05-31 06:00:00 TS 20.8680 144.516 970 tokyo main 1626 1524 OOO______OPO__ jtwc_wp WP021958 20.9000 144.500 100 3 20.8000 144.500 9 970 0 0 0 20.8000 144.500 5 97 972 20.9000 144.500 TC 100 20.9079 144.595 4 100 20.9000 144.500 100 965 300 22 10
1958143N06158 1958 35 WP MM PHYLLIS 1958-05-31 09:00:00 TS 21.9607 144.676 main 1513 1407 PPP______PPP__ WP021958 22.0275 144.759 100 3 21.7575 144.384 9 975 0 0 21.8699 144.568 5 97 973 22.0275 144.759 TC 100 22.0543 144.826 4 100 22.0275 144.759 100 966 300 22 4
1958143N06158 1958 35 WP MM PHYLLIS 1958-05-31 12:00:00 TS 23.0833 144.700 980 tokyo main 1396 1287 OOO______OOO__ jtwc_wp WP021958 23.2000 144.900 100 3 22.7000 144.100 9 980 0 0 0 23.0000 144.500 5 97 975 23.2000 144.900 TC 100 23.2000 144.900 4 100 23.2000 144.900 100 968 300 22 358
1958143N06158 1958 35 WP MM PHYLLIS 1958-05-31 15:00:00 TS 24.1916 144.604 main 1277 1165 PPP______PPP__ WP021958 24.3871 144.912 100 3 23.5028 143.806 9 980 0 0 24.1650 144.380 5 92 976 24.3871 144.912 TC 100 24.3208 144.704 4 97 24.3871 144.912 100 969 330 22 352
1958143N06158 1958 35 WP MM PHYLLIS 1958-05-31 18:00:00 TS 25.2860 144.375 980 tokyo main 1154 1039 OOO______OPO__ jtwc_wp WP021958 25.5000 144.700 100 3 24.5000 143.600 9 980 0 0 0 25.3000 144.200 5 87 978 25.5000 144.700 TC 100 25.4157 144.352 4 95 25.5000 144.700 100 970 360 23 347
1958143N06158 1958 35 WP MM PHYLLIS 1958-05-31 21:00:00 TS 26.4007 144.040 main 1025 921 PPP______PPP__ WP021958 26.4831 144.189 95 2 26.1374 143.719 9 980 0 0 26.3899 144.008 5 77 979 26.4831 144.189 TC 95 26.4277 143.947 4 92 26.4831 144.189 95 971 360 22 343
1958143N06158 1958 35 WP MM PHYLLIS 1958-06-01 00:00:00 TS 27.3667 143.667 980 tokyo main 911 834 OOO______OOO__ jtwc_wp WP021958 27.3000 143.600 90 2 27.7000 143.800 9 980 0 0 0 27.3000 143.800 4 68 981 27.3000 143.600 TC 90 27.3000 143.600 4 90 27.3000 143.600 90 973 360 18 338
1958143N06158 1958 35 WP MM PHYLLIS 1958-06-01 03:00:00 TS 28.0637 143.291 main 823 775 PPP______PPP__ WP021958 27.9673 143.130 85 2 28.5604 143.387 9 977 0 0 27.9250 143.570 4 68 979 27.9673 143.130 TC 85 27.9947 143.397 4 85 27.9673 143.130 86 973 330 13 336
1958143N06158 1958 35 WP MM PHYLLIS 1958-06-01 06:00:00 TS 28.5753 143.060 975 tokyo main 764 723 OOO______OPO__ jtwc_wp WP021958 28.5000 142.900 80 1 29.0000 143.000 9 975 0 0 0 28.4000 143.400 4 68 978 28.5000 142.900 TC 80 28.5438 143.325 4 80 28.5000 142.900 82 974 300 10 351
1958143N06158 1958 35 WP MM PHYLLIS 1958-06-01 09:00:00 TS 29.0503 143.115 main 713 691 PPP______PPP__ WP021958 29.0173 143.029 75 1 29.2747 143.072 9 975 0 0 28.9522 143.303 4 68 977 29.0173 143.029 TC 75 28.9961 143.340 4 75 29.0173 143.029 76 975 300 9 20
1958143N06158 1958 35 WP MM PHYLLIS 1958-06-01 12:00:00 TS 29.4000 143.400 975 tokyo main 695 690 OOO______OOO__ jtwc_wp WP021958 29.4000 143.400 70 1 29.4000 143.400 9 975 0 0 0 29.4000 143.400 4 68 976 29.4000 143.400 TC 70 29.4000 143.400 4 70 29.4000 143.400 70 976 300 8 47
1958143N06158 1958 35 WP MM PHYLLIS 1958-06-01 15:00:00 TS 29.5833 143.775 main 695 695 PPP______P_P__ WP021958 29.5568 143.762 67 1 29.5424 143.790 9 975 0 0 29.6674 143.752 4 68 976 29.5568 143.762 TC 67 4 29.6029 143.841 67 976 300 8 68
1958143N06158 1958 35 WP MM PHYLLIS 1958-06-01 18:00:00 TS 29.7235 144.300 975 tokyo main 711 708 OOO______O_O__ jtwc_wp WP021958 29.7000 144.300 65 1 29.7000 144.300 9 975 0 0 0 29.8000 144.300 4 68 976 29.7000 144.300 TC 65 4 29.7000 144.300 65 976 300 11 69
1958143N06158 1958 35 WP MM PHYLLIS 1958-06-01 21:00:00 TS 29.9931 145.012 main 721 721 PPP______P____ WP021958 30.0863 145.141 62 0 29.9347 144.855 9 977 0 0 29.8650 144.913 4 68 978 30.0863 145.141 TC 62 4 14 67
1958143N06158 1958 35 WP MM PHYLLIS 1958-06-02 00:00:00 TS 30.2750 145.775 980 tokyo main 743 743 OOO______O____ jtwc_wp WP021958 30.5000 146.000 60 0 30.2000 145.500 9 980 0 0 0 29.9000 145.600 4 68 980 30.5000 146.000 TC 60 13 67
1958143N06158 1958 35 WP MM PHYLLIS 1958-06-02 03:00:00 TS 30.4845 146.379 main 766 766 PPP______P____ WP021958 30.7490 146.554 55 0 30.4633 146.153 9 985 0 0 29.9766 146.256 4 63 985 30.7490 146.554 TC 55 11 68
1958143N06158 1958 35 WP MM PHYLLIS 1958-06-02 06:00:00 TS 30.7000 147.000 990 tokyo main 793 793 OOO______O____ jtwc_wp WP021958 31.0000 147.000 50 0 30.7000 147.000 9 990 0 0 0 30.1000 147.000 3 58 990 31.0000 147.000 TC 50 13 68
1958143N06158 1958 35 WP MM PHYLLIS 1958-06-02 09:00:00 TS 30.9714 147.800 main 826 826 PPP______P____ WP021958 31.3846 147.485 45 0 30.8533 148.288 9 992 0 0 30.2632 147.943 3 53 992 31.3846 147.485 TC 45 15 71
1958143N06158 1958 35 WP MM PHYLLIS 1958-06-02 12:00:00 TS 31.2000 148.686 995 tokyo main 878 878 OOO______O____ jtwc_wp WP021958 31.8000 148.000 40 0 31.0000 149.500 9 995 0 0 0 30.5000 148.900 3 48 995 31.8000 148.000 TC 40 15 73
1958143N06158 1958 35 WP MM PHYLLIS 1958-06-02 15:00:00 TS 31.3995 149.480 main 928 928 PPP______P____ WP021958 32.1682 148.579 35 0 31.2180 150.136 9 997 0 0 30.8122 149.725 3 43 997 32.1682 148.579 TC 35 13 74
1958143N06158 1958 35 WP MM PHYLLIS 1958-06-02 18:00:00 MX 31.5800 150.200 1000 tokyo main 972 972 OOO______O____ jtwc_wp WP021958 32.5000 149.200 30 -1 31.5000 150.500 6 1000 0 0 0 31.2000 150.400 2 38 1000 32.5000 149.200 TC 30 13 77
1958143N06158 1958 35 WP MM PHYLLIS 1958-06-02 21:00:00 MX 31.6898 150.929 main 1024 1024 _PP___________ WP021958 -1 31.7824 150.917 6 1002 0 0 31.5971 150.940 2 33 1001 TC 11 57
1958143N06158 1958 35 WP MM PHYLLIS 1958-06-03 00:00:00 MX 32.1500 151.250 1004 tokyo main 1033 1015 _OO___________ -1 32.2000 151.200 6 1004 0 0 0 32.1000 151.300 1 29 1002 12 20
1958143N06158 1958 35 WP MM PHYLLIS 1958-06-03 03:00:00 MX 32.8048 151.410 main 1015 989 _PP___________ -1 32.8474 151.296 6 1004 0 0 32.7623 151.525 1 29 1003 14 7
1958143N06158 1958 35 WP MM PHYLLIS 1958-06-03 06:00:00 ET 33.5500 151.450 1004 tokyo main 994 977 _OO___________ -1 33.6000 151.300 6 1004 0 0 0 33.5000 151.600 9 29 1004 14 2
1958143N06158 1958 35 WP MM PHYLLIS 1958-06-03 09:00:00 ET 34.2387 151.476 main 977 963 _PP___________ -1 34.2925 151.365 6 1005 0 0 34.1850 151.588 9 1005 14 0
1958143N06158 1958 35 WP MM PHYLLIS 1958-06-03 12:00:00 ET 34.9500 151.450 1006 tokyo main 961 919 _OO___________ -1 35.0000 151.400 6 1006 0 0 0 34.9000 151.500 9 1006 15 358
1958143N06158 1958 35 WP MM PHYLLIS 1958-06-03 15:00:00 ET 35.7212 151.412 main 919 870 _PP___________ -1 35.7425 151.380 6 1006 0 0 35.6998 151.444 9 1006 16 356
1958143N06158 1958 35 WP MM PHYLLIS 1958-06-03 18:00:00 ET 36.5000 151.300 1006 tokyo main 870 818 _OO___________ -1 36.5000 151.300 6 1006 0 0 0 36.5000 151.300 9 1006 15 351
1958143N06158 1958 35 WP MM PHYLLIS 1958-06-03 21:00:00 ET 37.2174 151.102 main 818 739 _PP___________ -1 37.2497 151.216 6 1007 0 0 37.1852 150.987 9 1007 15 345
1958143N06158 1958 35 WP MM PHYLLIS 1958-06-04 00:00:00 ET 37.9500 150.800 1008 tokyo main 730 646 _OO___________ -1 38.0000 151.000 6 1008 0 0 0 37.9000 150.600 9 1008 16 338
1958143N06158 1958 35 WP MM PHYLLIS 1958-06-04 03:00:00 ET 38.7044 150.336 main 641 556 _PP___________ -1 38.6760 150.480 6 1004 0 0 38.7328 150.192 9 1004 18 338
1958143N06158 1958 35 WP MM PHYLLIS 1958-06-04 06:00:00 ET 39.6000 149.950 1000 tokyo main 547 456 _OO___________ -1 39.5000 150.000 6 1000 0 0 0 39.7000 149.900 9 1000 21 350
1958143N06158 1958 35 WP MM PHYLLIS 1958-06-04 09:00:00 ET 40.7733 149.866 main 449 375 _PP___________ -1 40.7118 149.851 6 1000 0 0 40.8349 149.880 9 1001 24 1
1958143N06158 1958 35 WP MM PHYLLIS 1958-06-04 12:00:00 ET 42.0000 150.000 1000 tokyo main 366 282 _OO___________ -1 42.0000 150.000 6 1000 0 0 0 42.0000 150.000 9 1002 23 9
1958143N06158 1958 35 WP MM PHYLLIS 1958-06-04 15:00:00 ET 43.0398 150.367 main 285 207 _PP___________ -1 43.0385 150.495 6 1000 0 0 43.0425 150.111 9 1003 21 17
1958143N06158 1958 35 WP MM PHYLLIS 1958-06-04 18:00:00 ET 44.0000 150.840 1000 tokyo main 197 126 _OO___________ -1 44.0000 151.000 6 1000 0 0 0 44.0000 150.200 9 1004 20 13
1958143N06158 1958 35 WP MM PHYLLIS 1958-06-04 21:00:00 ET 44.9993 151.008 main 118 51 _P____________ -1 44.9993 151.008 6 1000 0 0 9 20 3
1958143N06158 1958 35 WP MM PHYLLIS 1958-06-05 00:00:00 ET 46.0000 151.000 1000 tokyo main 47 46 _O____________ -1 46.0000 151.000 6 1000 0 0 0 20 11
1958143N06158 1958 35 WP MM PHYLLIS 1958-06-05 03:00:00 ET 47.0011 151.564 main 135 135 _P____________ -1 47.0011 151.564 6 1001 0 0 21 19
1958143N06158 1958 35 WP MM PHYLLIS 1958-06-05 06:00:00 ET 48.0000 152.000 1002 tokyo main 243 243 _O____________ -1 48.0000 152.000 6 1002 0 0 0 20 0
1958143N06158 1958 35 WP MM PHYLLIS 1958-06-05 09:00:00 ET 49.0010 151.586 main 285 281 _P____________ -1 49.0010 151.586 6 1004 0 0 21 342
1958143N06158 1958 35 WP MM PHYLLIS 1958-06-05 12:00:00 ET 50.0000 151.000 1006 tokyo main 298 293 _O____________ -1 50.0000 151.000 6 1006 0 0 0 21 351
1958143N06158 1958 35 WP MM PHYLLIS 1958-06-05 15:00:00 ET 51.0728 151.093 main 300 300 _P____________ -1 51.0728 151.093 6 1005 0 0 20 0
1958143N06158 1958 35 WP MM PHYLLIS 1958-06-05 18:00:00 ET 52.0000 151.000 1004 tokyo main 347 347 _O____________ -1 52.0000 151.000 6 1004 0 0 0 18 335
1958143N06158 1958 35 WP MM PHYLLIS 1958-06-05 21:00:00 ET 52.7304 149.857 main 416 352 _P____________ -1 52.7304 149.857 6 1003 0 0 18 305
1958143N06158 1958 35 WP MM PHYLLIS 1958-06-06 00:00:00 ET 53.0000 148.600 1002 tokyo main 352 334 _O____________ -1 53.0000 148.600 6 1002 0 0 0 10 261
1958143N06158 1958 35 WP MM PHYLLIS 1958-06-06 03:00:00 ET 52.5714 148.266 main 335 318 _P____________ -1 52.5714 148.266 6 1003 0 0 11 200
1958143N06158 1958 35 WP MM PHYLLIS 1958-06-06 06:00:00 ET 52.0000 148.000 1004 tokyo main 318 262 _O____________ -1 52.0000 148.000 6 1004 0 0 0 10 223
1958143N06158 1958 35 WP MM PHYLLIS 1958-06-06 09:00:00 ET 51.8547 147.190 main 262 193 _P____________ -1 51.8547 147.190 6 1004 0 0 12 270
1958143N06158 1958 35 WP MM PHYLLIS 1958-06-06 12:00:00 ET 52.0000 146.000 1004 tokyo main 186 _O____________ -1 52.0000 146.000 6 1004 0 0 0 15 281

Digital Typhoon Data and Search

About IBTrACS Database

This database is a web-friendly format of International Best Track Archive for Climate Stewardship (IBTrACS), a global best track data archive curated by NOAA dating back to 1842.

Updated: 2021-11-26